Schneifelwetter: Wetterstation Hallschlag, 537 m . NN
Wetterdaten: Dienstag, 27.11.2012
Datum Zeit Temp. A. Feuchte A. Luftdruck Regen Wind Richtung Richtung Sonnenschein T Regen Taupunkt Windchill
27.11.2012 00:09 3,9 C 95 % 1002 hPa 0,0 l/m 26,4 km/h (4 Bft) SW45 225 0 min 0 min 3,2 C -6,9 C
27.11.2012 00:24 3,8 C 95 % 1002 hPa 0,0 l/m 20,3 km/h (4 Bft) SW45 215 0 min 0 min 3,1 C -4,8 C
27.11.2012 00:39 3,6 C 95 % 1002 hPa 0,0 l/m 20,8 km/h (4 Bft) S-SW45 210 0 min 0 min 2,9 C -5,3 C
27.11.2012 00:54 3,5 C 96 % 1002 hPa 0,0 l/m 15,9 km/h (3 Bft) SW45 215 0 min 0 min 2,9 C -3,2 C
27.11.2012 01:09 3,5 C 96 % 1002 hPa 0,0 l/m 15,8 km/h (3 Bft) SW22.5 225 0 min 0 min 2,9 C -3,2 C
27.11.2012 01:24 3,7 C 96 % 1002 hPa 0,0 l/m 23,1 km/h (4 Bft) SW45 220 0 min 0 min 3,1 C -6,0 C
27.11.2012 01:39 3,7 C 96 % 1002 hPa 0,0 l/m 21,0 km/h (4 Bft) S-SW45 205 0 min 0 min 3,1 C -5,3 C
27.11.2012 01:54 3,8 C 96 % 1001 hPa 0,0 l/m 21,5 km/h (4 Bft) S-SW22.5 200 0 min 0 min 3,2 C -5,3 C
27.11.2012 02:09 3,9 C 96 % 1001 hPa 0,0 l/m 26,9 km/h (4 Bft) SW67.5 225 0 min 0 min 3,3 C -7,0 C
27.11.2012 02:24 3,9 C 95 % 1001 hPa 0,0 l/m 31,7 km/h (5 Bft) SW45 215 0 min 0 min 3,2 C -8,4 C
27.11.2012 02:39 4,1 C 95 % 1001 hPa 0,0 l/m 24,6 km/h (4 Bft) SW45 225 0 min 0 min 3,4 C -6,0 C
27.11.2012 02:54 4,0 C 95 % 1001 hPa 0,0 l/m 25,0 km/h (4 Bft) SW45 215 0 min 0 min 3,3 C -6,3 C
27.11.2012 03:09 4,0 C 95 % 1001 hPa 0,0 l/m 27,4 km/h (4 Bft) SW45 235 0 min 0 min 3,3 C -7,0 C
27.11.2012 03:24 4,0 C 95 % 1001 hPa 0,0 l/m 28,5 km/h (4 Bft) SW45 235 0 min 0 min 3,3 C -7,4 C
27.11.2012 03:39 4,1 C 95 % 1001 hPa 0,0 l/m 27,9 km/h (4 Bft) SW45 215 0 min 0 min 3,4 C -7,1 C
27.11.2012 03:54 4,1 C 95 % 1001 hPa 0,0 l/m 26,5 km/h (4 Bft) SW45 220 0 min 0 min 3,4 C -6,6 C
27.11.2012 04:09 4,0 C 95 % 1001 hPa 0,0 l/m 27,7 km/h (4 Bft) SW45 220 0 min 0 min 3,3 C -7,1 C
27.11.2012 04:25 4,0 C 95 % 1001 hPa 0,0 l/m 21,6 km/h (4 Bft) SW45 225 0 min 0 min 3,3 C -5,1 C
27.11.2012 04:40 3,9 C 95 % 1001 hPa 0,0 l/m 32,0 km/h (5 Bft) SW45 215 0 min 0 min 3,2 C -8,4 C
27.11.2012 04:55 3,9 C 95 % 1001 hPa 0,0 l/m 27,9 km/h (4 Bft) SW67.5 215 0 min 0 min 3,2 C -7,3 C
27.11.2012 05:10 3,9 C 95 % 1001 hPa 0,0 l/m 23,6 km/h (4 Bft) SW22.5 215 0 min 0 min 3,2 C -6,0 C
27.11.2012 05:25 3,7 C 95 % 1001 hPa 0,0 l/m 23,6 km/h (4 Bft) SW45 220 0 min 0 min 3,0 C -6,2 C
27.11.2012 05:40 3,8 C 95 % 1001 hPa 0,0 l/m 26,8 km/h (4 Bft) SW45 215 0 min 0 min 3,1 C -7,1 C
27.11.2012 05:55 3,8 C 95 % 1001 hPa 0,0 l/m 22,6 km/h (4 Bft) S-SW45 200 0 min 0 min 3,1 C -5,7 C
27.11.2012 06:10 3,9 C 95 % 1001 hPa 0,0 l/m 28,5 km/h (4 Bft) SW45 225 0 min 0 min 3,2 C -7,5 C
27.11.2012 06:25 3,9 C 95 % 1001 hPa 0,0 l/m 23,1 km/h (4 Bft) S-SW22.5 210 0 min 0 min 3,2 C -5,8 C
27.11.2012 06:40 4,0 C 95 % 1001 hPa 0,0 l/m 24,0 km/h (4 Bft) S-SW45 200 0 min 0 min 3,3 C -6,0 C
27.11.2012 06:55 4,0 C 94 % 1001 hPa 0,0 l/m 28,2 km/h (4 Bft) SW45 215 0 min 0 min 3,1 C -7,3 C
27.11.2012 07:10 4,0 C 94 % 1001 hPa 0,0 l/m 25,8 km/h (4 Bft) S-SW45 205 0 min 0 min 3,1 C -6,6 C
27.11.2012 07:25 4,0 C 94 % 1001 hPa 0,0 l/m 21,8 km/h (4 Bft) SW22.5 215 0 min 0 min 3,1 C -5,2 C
27.11.2012 07:40 4,0 C 94 % 1001 hPa 0,0 l/m 20,3 km/h (4 Bft) SW22.5 220 0 min 0 min 3,1 C -4,6 C
27.11.2012 08:00 4,1 C 95 % 1001 hPa 0,0 l/m 20,1 km/h (4 Bft) SW45 225 0 min 0 min 3,4 C -4,4 C
27.11.2012 08:15 4,0 C 94 % 1002 hPa 0,0 l/m 29,0 km/h (5 Bft) SW45 215 0 min 0 min 3,1 C -7,5 C
27.11.2012 08:30 4,0 C 94 % 1002 hPa 0,0 l/m 30,7 km/h (5 Bft) S-SW45 205 0 min 0 min 3,1 C -8,0 C
27.11.2012 08:46 4,0 C 94 % 1002 hPa 0,0 l/m 25,0 km/h (4 Bft) SW45 220 0 min 0 min 3,1 C -6,3 C
27.11.2012 09:01 4,0 C 94 % 1002 hPa 0,0 l/m 16,5 km/h (3 Bft) S-SW22.5 205 0 min 0 min 3,1 C -2,9 C
27.11.2012 09:16 4,1 C 94 % 1002 hPa 0,0 l/m 19,5 km/h (3 Bft) SW45 215 0 min 0 min 3,2 C -4,1 C
27.11.2012 09:30 4,3 C 94 % 1002 hPa 0,0 l/m 21,0 km/h (4 Bft) S-SW45 205 0 min 0 min 3,4 C -4,5 C
27.11.2012 09:45 4,4 C 93 % 1002 hPa 0,0 l/m 17,8 km/h (3 Bft) S-SW45 195 0 min 0 min 3,4 C -3,0 C
27.11.2012 10:00 4,5 C 93 % 1002 hPa 0,0 l/m 19,0 km/h (3 Bft) S-SW22.5 195 0 min 0 min 3,5 C -3,4 C
27.11.2012 10:16 4,6 C 93 % 1002 hPa 0,0 l/m 21,5 km/h (4 Bft) SW45 230 0 min 0 min 3,6 C -4,3 C
27.11.2012 10:31 4,5 C 93 % 1002 hPa 0,0 l/m 19,6 km/h (3 Bft) S-SW22.5 195 0 min 0 min 3,5 C -3,7 C
27.11.2012 10:46 4,4 C 92 % 1003 hPa 0,0 l/m 20,8 km/h (4 Bft) S-SW22.5 210 0 min 0 min 3,2 C -4,3 C
27.11.2012 11:00 4,4 C 92 % 1003 hPa 0,0 l/m 22,3 km/h (4 Bft) SW45 225 0 min 0 min 3,2 C -4,8 C
27.11.2012 11:15 4,4 C 92 % 1003 hPa 0,0 l/m 15,9 km/h (3 Bft) S-SW22.5 200 0 min 0 min 3,2 C -2,1 C
27.11.2012 11:30 4,4 C 92 % 1003 hPa 0,0 l/m 19,6 km/h (3 Bft) S-SW45 200 0 min 0 min 3,2 C -3,8 C
27.11.2012 11:46 4,6 C 93 % 1003 hPa 0,0 l/m 13,8 km/h (3 Bft) S-SW22.5 205 0 min 0 min 3,6 C -0,8 C
27.11.2012 12:01 4,7 C 93 % 1003 hPa 0,0 l/m 12,1 km/h (2 Bft) S-SW22.5 210 0 min 0 min 3,7 C 0,3 C
27.11.2012 12:15 4,9 C 93 % 1002 hPa 0,0 l/m 11,7 km/h (2 Bft) S-SW22.5 205 0 min 0 min 3,9 C 0,8 C
27.11.2012 12:30 4,8 C 92 % 1002 hPa 0,0 l/m 19,7 km/h (3 Bft) SW22.5 225 0 min 0 min 3,6 C -3,3 C
27.11.2012 12:45 4,8 C 92 % 1003 hPa 0,0 l/m 26,8 km/h (4 Bft) SW22.5 225 0 min 0 min 3,6 C -5,8 C
27.11.2012 13:01 4,9 C 92 % 1002 hPa 0,0 l/m 24,4 km/h (4 Bft) SW67.5 235 0 min 0 min 3,7 C -4,9 C
27.11.2012 13:16 5,1 C 92 % 1003 hPa 0,0 l/m 19,0 km/h (3 Bft) S45 190 0 min 0 min 3,9 C -2,6 C
27.11.2012 13:31 5,2 C 91 % 1002 hPa 0,0 l/m 20,1 km/h (4 Bft) SW45 230 0 min 0 min 3,9 C -3,0 C
27.11.2012 13:45 4,9 C 90 % 1002 hPa 0,0 l/m 17,9 km/h (3 Bft) S-SW45 205 0 min 0 min 3,4 C -2,4 C
27.11.2012 14:00 4,8 C 91 % 1002 hPa 0,0 l/m 14,5 km/h (3 Bft) S-SW22.5 205 0 min 0 min 3,5 C -0,9 C
27.11.2012 14:15 5,1 C 91 % 1002 hPa 0,0 l/m 18,7 km/h (3 Bft) S-SW22.5 200 0 min 0 min 3,8 C -2,5 C
27.11.2012 14:31 5,2 C 89 % 1002 hPa 0,0 l/m 18,5 km/h (3 Bft) SW45 225 0 min 0 min 3,5 C -2,3 C
27.11.2012 14:46 4,7 C 89 % 1002 hPa 0,0 l/m 14,0 km/h (3 Bft) SW45 215 0 min 0 min 3,0 C -0,8 C
27.11.2012 15:01 4,7 C 89 % 1002 hPa 0,0 l/m 15,0 km/h (3 Bft) S-SW45 195 0 min 0 min 3,0 C -1,3 C
27.11.2012 15:15 4,6 C 89 % 1002 hPa 0,0 l/m 14,8 km/h (3 Bft) S45 190 0 min 0 min 2,9 C -1,3 C
27.11.2012 15:30 4,7 C 89 % 1002 hPa 0,0 l/m 9,6 km/h (2 Bft) S22.5 180 0 min 0 min 3,0 C 2,0 C
27.11.2012 15:45 4,6 C 89 % 1002 hPa 0,0 l/m 13,7 km/h (3 Bft) S45 190 0 min 0 min 2,9 C -0,7 C
27.11.2012 16:01 4,3 C 90 % 1002 hPa 0,0 l/m 16,2 km/h (3 Bft) S45 185 0 min 0 min 2,8 C -2,4 C
27.11.2012 16:16 4,3 C 90 % 1002 hPa 0,0 l/m 13,6 km/h (3 Bft) S-SW45 210 0 min 0 min 2,8 C -1,0 C
27.11.2012 16:15 4,3 C 90 % 1002 hPa 0,0 l/m 13,6 km/h (3 Bft) S-SW45 210 0 min 0 min 2,8 C -1,0 C
27.11.2012 16:30 3,8 C 90 % 1003 hPa 0,0 l/m 11,0 km/h (2 Bft) S22.5 175 0 min 0 min 2,3 C 0,0 C
27.11.2012 16:45 3,2 C 91 % 1003 hPa 0,0 l/m 5,3 km/h (1 Bft) S 175 0 min 0 min 1,9 C 3,2 C
27.11.2012 17:01 2,7 C 91 % 1002 hPa 0,0 l/m 7,4 km/h (2 Bft) S 180 0 min 0 min 1,4 C 1,7 C
27.11.2012 17:16 2,2 C 92 % 1003 hPa 0,0 l/m 0,0 km/h (0 Bft) S 180 0 min 0 min 1,0 C 2,2 C
27.11.2012 17:31 1,9 C 92 % 1003 hPa 0,0 l/m 0,0 km/h (0 Bft) S 180 0 min 0 min 0,7 C 1,9 C
27.11.2012 17:45 1,6 C 93 % 1003 hPa 0,0 l/m 0,0 km/h (0 Bft) S 180 0 min 0 min 0,6 C 1,6 C
27.11.2012 18:00 1,9 C 94 % 1003 hPa 0,0 l/m 0,0 km/h (0 Bft) S 180 0 min 0 min 1,0 C 1,9 C
27.11.2012 18:15 2,2 C 94 % 1003 hPa 0,0 l/m 0,0 km/h (0 Bft) S 180 0 min 0 min 1,3 C 2,2 C
27.11.2012 18:31 2,4 C 95 % 1003 hPa 0,0 l/m 0,0 km/h (0 Bft) S 185 0 min 0 min 1,7 C 2,4 C
27.11.2012 18:46 2,7 C 95 % 1003 hPa 0,3 l/m 0,0 km/h (0 Bft) S 185 0 min 15 min 2,0 C 2,7 C
27.11.2012 19:01 2,8 C 95 % 1003 hPa 0,3 l/m 15,1 km/h (3 Bft) W-SW22.5 240 0 min 15 min 2,1 C -3,6 C
27.11.2012 19:15 2,8 C 95 % 1003 hPa 0,0 l/m 14,4 km/h (3 Bft) W-SW45 250 0 min 0 min 2,1 C -3,3 C
27.11.2012 19:30 2,8 C 95 % 1003 hPa 0,0 l/m 9,2 km/h (2 Bft) SW 215 0 min 0 min 2,1 C 0,3 C
27.11.2012 19:45 2,7 C 95 % 1003 hPa 0,0 l/m 7,9 km/h (2 Bft) W-SW 240 0 min 0 min 2,0 C 1,3 C
27.11.2012 20:01 2,6 C 95 % 1003 hPa 0,0 l/m 0,2 km/h (0 Bft) W-SW 240 0 min 0 min 1,9 C 2,6 C
27.11.2012 20:16 2,5 C 95 % 1003 hPa 0,0 l/m 4,2 km/h (1 Bft) SW 215 0 min 0 min 1,8 C 2,5 C
27.11.2012 20:31 2,2 C 95 % 1003 hPa 0,0 l/m 5,1 km/h (1 Bft) SW 215 0 min 0 min 1,5 C 2,2 C
27.11.2012 20:45 2,0 C 95 % 1003 hPa 0,0 l/m 0,0 km/h (0 Bft) SW 215 0 min 0 min 1,3 C 2,0 C
27.11.2012 21:00 1,9 C 95 % 1003 hPa 0,0 l/m 0,0 km/h (0 Bft) SW 215 0 min 0 min 1,2 C 1,9 C
27.11.2012 21:15 1,9 C 95 % 1003 hPa 0,0 l/m 0,0 km/h (0 Bft) SW 215 0 min 0 min 1,2 C 1,9 C
27.11.2012 21:31 1,9 C 95 % 1003 hPa 0,0 l/m 0,0 km/h (0 Bft) SW 215 0 min 0 min 1,2 C 1,9 C
27.11.2012 21:46 2,0 C 96 % 1003 hPa 0,0 l/m 0,0 km/h (0 Bft) SW 215 0 min 0 min 1,4 C 2,0 C
27.11.2012 22:01 2,0 C 96 % 1004 hPa 0,0 l/m 0,0 km/h (0 Bft) SW 215 0 min 0 min 1,4 C 2,0 C
27.11.2012 22:15 2,0 C 96 % 1004 hPa 0,0 l/m 0,0 km/h (0 Bft) SW 215 0 min 0 min 1,4 C 2,0 C
27.11.2012 22:30 1,9 C 96 % 1004 hPa 0,0 l/m 0,0 km/h (0 Bft) SW 215 0 min 0 min 1,3 C 1,9 C
27.11.2012 22:45 1,9 C 96 % 1004 hPa 0,0 l/m 0,0 km/h (0 Bft) SW 215 0 min 0 min 1,3 C 1,9 C
27.11.2012 23:01 1,7 C 96 % 1004 hPa 0,0 l/m 0,0 km/h (0 Bft) SW 215 0 min 0 min 1,1 C 1,7 C
27.11.2012 23:16 1,4 C 96 % 1004 hPa 0,0 l/m 0,0 km/h (0 Bft) SW 215 0 min 0 min 0,8 C 1,4 C
27.11.2012 23:31 1,1 C 96 % 1004 hPa 0,0 l/m 0,0 km/h (0 Bft) SW 215 0 min 0 min 0,5 C 1,1 C
27.11.2012 23:45 0,9 C 96 % 1004 hPa 0,0 l/m 0,0 km/h (0 Bft) SW 215 0 min 0 min 0,3 C 0,9 C
_ Min-Zeit 23:45 14:31 01:54 - 17:16 - - - - 23:45 04:40
Minimum _ 0,9 C 89 % 1001 hPa - 0,0 km/h (0 Bft) - - - - 0,3 C -8,4 C
_ Max-Zeit 13:31 00:54 22:01 18:46 04:40 - - 00:09 18:46 13:16 16:45
Maximum _ 5,2 C 96 % 1004 hPa 0,3 l/m 32,0 km/h
SW (5 Bft)
- - 0 min 15 min 3,9 C 3,2 C
Durchschnitt _ 3,6 C 94 % 1002 hPa #0,6 l/m 15,5 km/h (3 Bft) SW - #0 min. #30 min. 2,7 C -2,6 C